Time,TemperatureF,DewpointF,PressureIn,WindDirection,WindDirectionDegrees,WindSpeedMPH,WindSpeedGustMPH,Humidity,HourlyPrecipIn,Conditions,Clouds,dailyrainin,SoftwareType,DateUTC
2013-04-08 00:04:00,23.0,11.1,29.65,North,0,0.0,-999.0,59,0.00,,,-99.99,,2013-04-08 08:04:00,
2013-04-08 00:10:00,22.8,10.3,29.65,North,0,0.0,-999.0,58,0.00,,,-99.99,,2013-04-08 08:10:00,
2013-04-08 00:15:00,22.9,10.9,29.65,North,0,0.0,-999.0,59,0.00,,,-99.99,,2013-04-08 08:15:00,
2013-04-08 00:20:00,22.9,11.2,29.65,North,0,0.0,-999.0,60,0.00,,,-99.99,,2013-04-08 08:20:00,
2013-04-08 00:25:00,22.7,11.2,29.65,North,0,0.0,-999.0,60,0.00,,,-99.99,,2013-04-08 08:25:00,
2013-04-08 00:30:00,22.6,11.4,29.65,North,0,0.0,-999.0,61,0.00,,,-99.99,,2013-04-08 08:30:00,
2013-04-08 00:36:00,22.6,11.8,29.65,North,0,0.0,-999.0,62,0.00,,,-99.99,,2013-04-08 08:36:00,
2013-04-08 00:42:00,22.7,11.8,29.65,North,0,0.0,-999.0,62,0.00,,,-99.99,,2013-04-08 08:42:00,
2013-04-08 00:47:00,22.5,12.0,29.65,North,0,0.0,-999.0,63,0.00,,,-99.99,,2013-04-08 08:47:00,
2013-04-08 00:52:00,22.5,11.8,29.65,North,0,0.0,-999.0,62,0.00,,,-99.99,,2013-04-08 08:52:00,
2013-04-08 00:57:00,22.5,12.2,29.65,North,0,0.0,-999.0,63,0.00,,,-99.99,,2013-04-08 08:57:00,
2013-04-08 01:02:00,22.5,12.1,29.64,North,0,0.0,-999.0,63,0.00,,,-99.99,,2013-04-08 09:02:00,
2013-04-08 01:07:00,22.5,12.2,29.64,North,0,0.0,-999.0,63,0.00,,,-99.99,,2013-04-08 09:07:00,
2013-04-08 01:12:00,22.8,12.4,29.64,North,0,0.0,-999.0,63,0.00,,,-99.99,,2013-04-08 09:12:00,
2013-04-08 01:17:00,22.5,11.9,29.64,North,0,0.0,-999.0,63,0.00,,,-99.99,,2013-04-08 09:17:00,
2013-04-08 01:22:00,22.4,11.9,29.64,North,0,0.0,-999.0,63,0.00,,,-99.99,,2013-04-08 09:22:00,
2013-04-08 01:27:00,22.5,12.2,29.64,North,0,0.0,-999.0,64,0.00,,,-99.99,,2013-04-08 09:27:00,
2013-04-08 01:32:00,22.4,12.7,29.64,North,0,0.0,-999.0,65,0.00,,,-99.99,,2013-04-08 09:32:00,
2013-04-08 01:37:00,22.2,12.1,29.64,North,0,0.0,-999.0,64,0.00,,,-99.99,,2013-04-08 09:37:00,
2013-04-08 01:42:00,22.4,12.4,29.64,North,0,0.0,-999.0,64,0.00,,,-99.99,,2013-04-08 09:42:00,
2013-04-08 01:47:00,22.4,12.8,29.64,North,0,0.0,-999.0,66,0.00,,,-99.99,,2013-04-08 09:47:00,
2013-04-08 01:52:00,22.3,12.9,29.64,North,0,0.0,-999.0,66,0.00,,,-99.99,,2013-04-08 09:52:00,
2013-04-08 01:57:00,22.0,12.6,29.64,North,0,0.0,-999.0,66,0.00,,,-99.99,,2013-04-08 09:57:00,
2013-04-08 02:02:00,21.9,12.7,29.62,North,0,0.0,-999.0,67,0.00,,,-99.99,,2013-04-08 10:02:00,
2013-04-08 02:08:00,21.8,12.4,29.62,North,0,0.0,-999.0,66,0.00,,,-99.99,,2013-04-08 10:08:00,
2013-04-08 02:14:00,21.9,11.9,29.62,North,0,0.0,-999.0,64,0.00,,,-99.99,,2013-04-08 10:14:00,
2013-04-08 02:19:00,21.9,12.8,29.62,North,0,0.0,-999.0,67,0.00,,,-99.99,,2013-04-08 10:19:00,
2013-04-08 02:25:00,22.2,12.1,29.62,North,0,0.0,-999.0,64,0.00,,,-99.99,,2013-04-08 10:25:00,
2013-04-08 02:30:00,22.0,11.7,29.62,North,0,0.0,-999.0,64,0.00,,,-99.99,,2013-04-08 10:30:00,
2013-04-08 02:35:00,21.8,11.0,29.62,North,0,0.0,-999.0,62,0.00,,,-99.99,,2013-04-08 10:35:00,
2013-04-08 02:40:00,21.9,11.3,29.62,North,0,0.0,-999.0,63,0.00,,,-99.99,,2013-04-08 10:40:00,
2013-04-08 02:45:00,21.9,11.9,29.62,North,0,0.0,-999.0,65,0.00,,,-99.99,,2013-04-08 10:45:00,
2013-04-08 02:50:00,21.8,11.3,29.62,North,0,0.0,-999.0,63,0.00,,,-99.99,,2013-04-08 10:50:00,
2013-04-08 02:55:00,21.8,11.6,29.62,North,0,0.0,-999.0,64,0.00,,,-99.99,,2013-04-08 10:55:00,
2013-04-08 03:01:00,21.9,12.0,29.61,North,0,0.0,-999.0,65,0.00,,,-99.99,,2013-04-08 11:01:00,
2013-04-08 03:06:00,21.8,10.8,29.61,North,0,0.0,-999.0,62,0.00,,,-99.99,,2013-04-08 11:06:00,
2013-04-08 03:11:00,22.3,12.5,29.61,North,0,0.0,-999.0,65,0.00,,,-99.99,,2013-04-08 11:11:00,
2013-04-08 03:16:00,22.0,12.6,29.61,North,0,0.0,-999.0,66,0.00,,,-99.99,,2013-04-08 11:16:00,
2013-04-08 03:22:00,22.0,11.2,29.61,North,0,0.0,-999.0,62,0.00,,,-99.99,,2013-04-08 11:22:00,
2013-04-08 03:27:00,22.2,11.9,29.61,North,0,0.0,-999.0,64,0.00,,,-99.99,,2013-04-08 11:27:00,
2013-04-08 03:34:00,22.0,12.0,29.61,North,0,0.0,-999.0,64,0.00,,,-99.99,,2013-04-08 11:34:00,
2013-04-08 03:39:00,22.0,12.5,29.61,North,0,0.0,-999.0,66,0.00,,,-99.99,,2013-04-08 11:39:00,
2013-04-08 03:45:00,21.9,12.3,29.61,North,0,0.0,-999.0,65,0.00,,,-99.99,,2013-04-08 11:45:00,
2013-04-08 03:50:00,21.8,12.3,29.61,North,0,0.0,-999.0,66,0.00,,,-99.99,,2013-04-08 11:50:00,
2013-04-08 03:55:00,21.8,12.8,29.61,North,0,0.0,-999.0,67,0.00,,,-99.99,,2013-04-08 11:55:00,
2013-04-08 04:00:00,21.8,12.9,29.57,North,0,0.0,-999.0,68,0.00,,,-99.99,,2013-04-08 12:00:00,
2013-04-08 04:05:00,21.9,12.8,29.57,North,0,0.0,-999.0,67,0.00,,,-99.99,,2013-04-08 12:05:00,
2013-04-08 04:10:00,21.9,13.2,29.57,North,0,0.0,-999.0,68,0.00,,,-99.99,,2013-04-08 12:10:00,
2013-04-08 04:15:00,21.5,12.9,29.57,North,0,0.0,-999.0,68,0.00,,,-99.99,,2013-04-08 12:15:00,
2013-04-08 04:20:00,21.6,13.2,29.57,North,0,0.0,-999.0,69,0.00,,,-99.99,,2013-04-08 12:20:00,
2013-04-08 04:25:00,21.8,13.7,29.57,North,0,0.0,-999.0,70,0.00,,,-99.99,,2013-04-08 12:25:00,
2013-04-08 04:30:00,21.7,13.9,29.57,North,0,0.0,-999.0,71,0.00,,,-99.99,,2013-04-08 12:30:00,
2013-04-08 04:35:00,21.6,13.8,29.57,North,0,0.0,-999.0,71,0.00,,,-99.99,,2013-04-08 12:35:00,
2013-04-08 04:41:00,21.6,13.8,29.57,North,0,0.0,-999.0,71,0.00,,,-99.99,,2013-04-08 12:41:00,
2013-04-08 04:46:00,21.4,13.4,29.57,North,0,0.0,-999.0,70,0.00,,,-99.99,,2013-04-08 12:46:00,
2013-04-08 04:51:00,21.6,13.6,29.57,North,0,0.0,-999.0,70,0.00,,,-99.99,,2013-04-08 12:51:00,
2013-04-08 04:56:00,21.3,13.1,29.57,North,0,0.0,-999.0,70,0.00,,,-99.99,,2013-04-08 12:56:00,
2013-04-08 05:02:00,21.4,13.1,29.57,North,0,0.0,-999.0,69,0.00,,,-99.99,,2013-04-08 13:02:00,
2013-04-08 05:07:00,21.3,12.7,29.57,North,0,0.0,-999.0,68,0.00,,,-99.99,,2013-04-08 13:07:00,
2013-04-08 05:12:00,21.2,13.3,29.57,North,0,0.0,-999.0,70,0.00,,,-99.99,,2013-04-08 13:12:00,
2013-04-08 05:17:00,21.1,12.5,29.57,North,0,0.0,-999.0,69,0.00,,,-99.99,,2013-04-08 13:17:00,
2013-04-08 05:22:00,21.1,12.9,29.57,North,0,0.0,-999.0,70,0.00,,,-99.99,,2013-04-08 13:22:00,
2013-04-08 05:27:00,21.1,12.8,29.57,North,0,0.0,-999.0,69,0.00,,,-99.99,,2013-04-08 13:27:00,
2013-04-08 05:32:00,21.1,12.8,29.57,North,0,0.0,-999.0,69,0.00,,,-99.99,,2013-04-08 13:32:00,
2013-04-08 05:37:00,21.3,13.0,29.57,North,0,0.0,-999.0,69,0.00,,,-99.99,,2013-04-08 13:37:00,
2013-04-08 05:42:00,21.1,12.8,29.57,North,0,0.0,-999.0,69,0.00,,,-99.99,,2013-04-08 13:42:00,
2013-04-08 05:47:00,21.2,13.1,29.57,North,0,0.0,-999.0,70,0.00,,,-99.99,,2013-04-08 13:47:00,
2013-04-08 05:54:00,21.1,12.9,29.57,North,0,0.0,-999.0,70,0.00,,,-99.99,,2013-04-08 13:54:00,
2013-04-08 05:59:00,21.4,13.2,29.57,North,0,0.0,-999.0,70,0.00,,,-99.99,,2013-04-08 13:59:00,
2013-04-08 06:04:00,21.4,13.6,29.56,North,0,0.0,-999.0,71,0.00,,,-99.99,,2013-04-08 14:04:00,
2013-04-08 06:09:00,21.3,13.3,29.56,North,0,0.0,-999.0,70,0.00,,,-99.99,,2013-04-08 14:09:00,
2013-04-08 06:14:00,21.7,14.1,29.56,North,0,0.0,-999.0,72,0.00,,,-99.99,,2013-04-08 14:14:00,
2013-04-08 06:19:00,21.6,14.3,29.56,North,0,0.0,-999.0,72,0.00,,,-99.99,,2013-04-08 14:19:00,
2013-04-08 06:24:00,21.4,13.7,29.56,North,0,0.0,-999.0,71,0.00,,,-99.99,,2013-04-08 14:24:00,
2013-04-08 06:29:00,21.4,13.9,29.56,North,0,0.0,-999.0,72,0.00,,,-99.99,,2013-04-08 14:29:00,
2013-04-08 06:34:00,21.4,14.3,29.56,North,0,0.0,-999.0,73,0.00,,,-99.99,,2013-04-08 14:34:00,
2013-04-08 06:40:00,21.4,14.1,29.56,North,0,0.0,-999.0,73,0.00,,,-99.99,,2013-04-08 14:40:00,
2013-04-08 06:45:00,21.2,14.0,29.56,North,0,0.0,-999.0,73,0.00,,,-99.99,,2013-04-08 14:45:00,
2013-04-08 06:50:00,20.9,13.1,29.56,North,0,0.0,-999.0,71,0.00,,,-99.99,,2013-04-08 14:50:00,
2013-04-08 06:55:00,21.3,13.9,29.56,North,0,0.0,-999.0,72,0.00,,,-99.99,,2013-04-08 14:55:00,
2013-04-08 07:00:00,20.8,13.0,29.55,North,0,0.0,-999.0,71,0.00,,,-99.99,,2013-04-08 15:00:00,
2013-04-08 07:05:00,20.8,13.1,29.55,North,0,0.0,-999.0,71,0.00,,,-99.99,,2013-04-08 15:05:00,
2013-04-08 07:10:00,20.9,13.1,29.55,North,0,0.0,-999.0,71,0.00,,,-99.99,,2013-04-08 15:10:00,
2013-04-08 07:15:00,20.7,13.2,29.55,North,0,0.0,-999.0,72,0.00,,,-99.99,,2013-04-08 15:15:00,
2013-04-08 07:20:00,20.8,12.7,29.55,North,0,0.0,-999.0,70,0.00,,,-99.99,,2013-04-08 15:20:00,
2013-04-08 07:25:00,20.8,12.6,29.55,North,0,0.0,-999.0,70,0.00,,,-99.99,,2013-04-08 15:25:00,
2013-04-08 07:31:00,20.6,12.4,29.55,North,0,0.0,-999.0,70,0.00,,,-99.99,,2013-04-08 15:31:00,
2013-04-08 07:36:00,20.7,12.6,29.55,North,0,0.0,-999.0,70,0.00,,,-99.99,,2013-04-08 15:36:00,
2013-04-08 07:41:00,20.8,13.0,29.55,North,0,0.0,-999.0,71,0.00,,,-99.99,,2013-04-08 15:41:00,
2013-04-08 07:47:00,20.5,12.1,29.55,North,0,0.0,-999.0,69,0.00,,,-99.99,,2013-04-08 15:47:00,
2013-04-08 07:52:00,20.8,12.2,29.55,North,0,0.0,-999.0,69,0.00,,,-99.99,,2013-04-08 15:52:00,
2013-04-08 07:57:00,20.8,12.2,29.55,North,0,0.0,-999.0,68,0.00,,,-99.99,,2013-04-08 15:57:00,
2013-04-08 08:04:00,21.1,12.2,29.54,North,0,0.0,-999.0,68,0.00,,,-99.99,,2013-04-08 16:04:00,
2013-04-08 08:09:00,21.0,11.9,29.54,North,0,0.0,-999.0,67,0.00,,,-99.99,,2013-04-08 16:09:00,
2013-04-08 08:14:00,21.0,11.7,29.54,North,0,0.0,-999.0,66,0.00,,,-99.99,,2013-04-08 16:14:00,
2013-04-08 08:19:00,21.5,11.7,29.54,North,0,0.0,-999.0,65,0.00,,,-99.99,,2013-04-08 16:19:00,
2013-04-08 08:24:00,22.4,12.8,29.54,North,0,0.0,-999.0,66,0.00,,,-99.99,,2013-04-08 16:24:00,
2013-04-08 08:29:00,22.7,11.6,29.54,North,0,0.0,-999.0,61,0.00,,,-99.99,,2013-04-08 16:29:00,
2013-04-08 08:34:00,22.8,11.6,29.54,North,0,0.0,-999.0,61,0.00,,,-99.99,,2013-04-08 16:34:00,
2013-04-08 08:40:00,23.5,12.2,29.54,North,0,0.0,-999.0,61,0.00,,,-99.99,,2013-04-08 16:40:00,
2013-04-08 08:45:00,24.5,11.8,29.54,North,0,0.0,-999.0,57,0.00,,,-99.99,,2013-04-08 16:45:00,
2013-04-08 08:50:00,24.6,12.5,29.54,North,0,0.0,-999.0,59,0.00,,,-99.99,,2013-04-08 16:50:00,
2013-04-08 08:56:00,24.2,11.1,29.54,North,0,0.0,-999.0,56,0.00,,,-99.99,,2013-04-08 16:56:00,
2013-04-08 09:02:00,24.3,10.5,29.53,North,0,0.0,-999.0,55,0.00,,,-99.99,,2013-04-08 17:02:00,
2013-04-08 09:07:00,24.8,11.2,29.53,North,0,0.0,-999.0,55,0.00,,,-99.99,,2013-04-08 17:07:00,
2013-04-08 09:12:00,24.6,10.5,29.53,North,0,0.0,-999.0,54,0.00,,,-99.99,,2013-04-08 17:12:00,
2013-04-08 09:17:00,24.3,11.6,29.53,North,0,0.0,-999.0,57,0.00,,,-99.99,,2013-04-08 17:17:00,
2013-04-08 09:22:00,25.0,11.8,29.53,North,0,0.0,-999.0,56,0.00,,,-99.99,,2013-04-08 17:22:00,
2013-04-08 09:29:00,25.7,12.9,29.53,North,0,0.0,-999.0,57,0.00,,,-99.99,,2013-04-08 17:29:00,
2013-04-08 09:34:00,25.4,11.0,29.53,North,0,0.0,-999.0,53,0.00,,,-99.99,,2013-04-08 17:34:00,
2013-04-08 09:40:00,25.1,11.4,29.53,North,0,0.0,-999.0,55,0.00,,,-99.99,,2013-04-08 17:40:00,
2013-04-08 09:45:00,25.1,10.6,29.53,North,0,0.0,-999.0,53,0.00,,,-99.99,,2013-04-08 17:45:00,
2013-04-08 09:51:00,25.1,10.8,29.53,North,0,0.0,-999.0,54,0.00,,,-99.99,,2013-04-08 17:51:00,
2013-04-08 09:57:00,25.9,11.6,29.53,North,0,0.0,-999.0,54,0.00,,,-99.99,,2013-04-08 17:57:00,
2013-04-08 10:02:00,25.9,11.0,29.50,North,0,0.0,-999.0,52,0.00,,,-99.99,,2013-04-08 18:02:00,
2013-04-08 10:07:00,25.9,10.7,29.50,North,0,0.0,-999.0,52,0.00,,,-99.99,,2013-04-08 18:07:00,
2013-04-08 10:12:00,26.5,11.3,29.50,North,0,0.0,-999.0,52,0.00,,,-99.99,,2013-04-08 18:12:00,
2013-04-08 10:17:00,26.4,10.9,29.50,North,0,0.0,-999.0,51,0.00,,,-99.99,,2013-04-08 18:17:00,
2013-04-08 10:22:00,26.1,10.5,29.50,North,0,0.0,-999.0,51,0.00,,,-99.99,,2013-04-08 18:22:00,
2013-04-08 10:27:00,26.3,10.9,29.50,North,0,0.0,-999.0,51,0.00,,,-99.99,,2013-04-08 18:27:00,
2013-04-08 10:32:00,26.6,10.8,29.50,North,0,0.0,-999.0,50,0.00,,,-99.99,,2013-04-08 18:32:00,
2013-04-08 10:37:00,27.0,10.4,29.50,North,0,0.0,-999.0,49,0.00,,,-99.99,,2013-04-08 18:37:00,
2013-04-08 10:42:00,26.8,10.5,29.50,North,0,0.0,-999.0,49,0.00,,,-99.99,,2013-04-08 18:42:00,
2013-04-08 10:47:00,27.2,10.7,29.50,North,0,0.0,-999.0,49,0.00,,,-99.99,,2013-04-08 18:47:00,
2013-04-08 10:52:00,27.2,9.9,29.50,North,0,0.0,-999.0,47,0.00,,,-99.99,,2013-04-08 18:52:00,
2013-04-08 10:57:00,27.3,11.2,29.50,North,0,0.0,-999.0,50,0.00,,,-99.99,,2013-04-08 18:57:00,
2013-04-08 11:02:00,27.6,11.6,29.48,North,0,0.0,-999.0,50,0.00,,,-99.99,,2013-04-08 19:02:00,
2013-04-08 11:08:00,27.2,10.4,29.48,North,0,0.0,-999.0,48,0.00,,,-99.99,,2013-04-08 19:08:00,
2013-04-08 11:13:00,27.7,10.1,29.48,North,0,0.0,-999.0,47,0.00,,,-99.99,,2013-04-08 19:13:00,
2013-04-08 11:19:00,28.2,11.3,29.48,North,0,0.0,-999.0,48,0.00,,,-99.99,,2013-04-08 19:19:00,
2013-04-08 11:24:00,28.4,12.7,29.48,North,0,0.0,-999.0,51,0.00,,,-99.99,,2013-04-08 19:24:00,
2013-04-08 11:29:00,28.2,12.2,29.48,North,0,0.0,-999.0,50,0.00,,,-99.99,,2013-04-08 19:29:00,
2013-04-08 11:34:00,28.7,12.4,29.48,North,0,0.0,-999.0,49,0.00,,,-99.99,,2013-04-08 19:34:00,
2013-04-08 11:39:00,28.9,11.9,29.48,North,0,0.0,-999.0,48,0.00,,,-99.99,,2013-04-08 19:39:00,
2013-04-08 11:44:00,28.3,12.1,29.48,North,0,0.0,-999.0,50,0.00,,,-99.99,,2013-04-08 19:44:00,
2013-04-08 11:50:00,27.9,13.3,29.48,North,0,0.0,-999.0,53,0.00,,,-99.99,,2013-04-08 19:50:00,
2013-04-08 11:56:00,28.1,11.0,29.48,North,0,0.0,-999.0,48,0.00,,,-99.99,,2013-04-08 19:56:00,
2013-04-08 12:01:00,28.2,12.0,29.46,North,0,0.0,-999.0,50,0.00,,,-99.99,,2013-04-08 20:01:00,
2013-04-08 12:07:00,29.4,11.3,29.46,North,0,0.0,-999.0,46,0.00,,,-99.99,,2013-04-08 20:07:00,
2013-04-08 12:12:00,29.0,10.7,29.46,North,0,0.0,-999.0,45,0.00,,,-99.99,,2013-04-08 20:12:00,
2013-04-08 12:17:00,29.2,11.6,29.46,North,0,0.0,-999.0,47,0.00,,,-99.99,,2013-04-08 20:17:00,
2013-04-08 12:22:00,29.0,12.0,29.46,North,0,0.0,-999.0,48,0.00,,,-99.99,,2013-04-08 20:22:00,
2013-04-08 12:28:00,28.9,12.6,29.46,North,0,0.0,-999.0,50,0.00,,,-99.99,,2013-04-08 20:28:00,
2013-04-08 12:34:00,29.3,10.4,29.46,North,0,0.0,-999.0,44,0.00,,,-99.99,,2013-04-08 20:34:00,
2013-04-08 12:39:00,29.5,12.3,29.46,North,0,0.0,-999.0,48,0.00,,,-99.99,,2013-04-08 20:39:00,
2013-04-08 12:44:00,29.4,11.9,29.46,North,0,0.0,-999.0,47,0.00,,,-99.99,,2013-04-08 20:44:00,
2013-04-08 12:49:00,29.0,13.0,29.46,North,0,0.0,-999.0,50,0.00,,,-99.99,,2013-04-08 20:49:00,
2013-04-08 12:55:00,29.2,11.7,29.46,North,0,0.0,-999.0,47,0.00,,,-99.99,,2013-04-08 20:55:00,
2013-04-08 13:00:00,29.2,13.1,29.44,North,0,0.0,-999.0,50,0.00,,,-99.99,,2013-04-08 21:00:00,
2013-04-08 13:05:00,28.8,10.5,29.44,North,0,0.0,-999.0,45,0.00,,,-99.99,,2013-04-08 21:05:00,
2013-04-08 13:10:00,28.7,12.3,29.44,North,0,0.0,-999.0,49,0.00,,,-99.99,,2013-04-08 21:10:00,
2013-04-08 13:15:00,29.1,13.0,29.44,North,0,0.0,-999.0,50,0.00,,,-99.99,,2013-04-08 21:15:00,
2013-04-08 13:20:00,29.9,12.8,29.44,North,0,0.0,-999.0,48,0.00,,,-99.99,,2013-04-08 21:20:00,
2013-04-08 13:26:00,30.0,12.5,29.44,North,0,0.0,-999.0,47,0.00,,,-99.99,,2013-04-08 21:26:00,
2013-04-08 13:32:00,30.5,12.0,29.44,North,0,0.0,-999.0,45,0.00,,,-99.99,,2013-04-08 21:32:00,
2013-04-08 13:37:00,30.3,11.9,29.44,North,0,0.0,-999.0,45,0.00,,,-99.99,,2013-04-08 21:37:00,
2013-04-08 13:42:00,30.4,12.9,29.44,North,0,0.0,-999.0,47,0.00,,,-99.99,,2013-04-08 21:42:00,
2013-04-08 13:47:00,30.2,12.5,29.44,North,0,0.0,-999.0,47,0.00,,,-99.99,,2013-04-08 21:47:00,
2013-04-08 13:52:00,30.3,12.4,29.44,North,0,0.0,-999.0,46,0.00,,,-99.99,,2013-04-08 21:52:00,
2013-04-08 13:57:00,31.2,12.6,29.44,North,0,0.0,-999.0,45,0.00,,,-99.99,,2013-04-08 21:57:00,
2013-04-08 14:04:00,31.0,11.7,29.42,North,0,0.0,-999.0,44,0.00,,,-99.99,,2013-04-08 22:04:00,
2013-04-08 14:09:00,30.3,11.9,29.42,North,0,0.0,-999.0,45,0.00,,,-99.99,,2013-04-08 22:09:00,
2013-04-08 14:14:00,30.7,12.6,29.42,North,0,0.0,-999.0,46,0.00,,,-99.99,,2013-04-08 22:14:00,
2013-04-08 14:20:00,30.4,11.9,29.42,North,0,0.0,-999.0,45,0.00,,,-99.99,,2013-04-08 22:20:00,
2013-04-08 14:25:00,30.6,12.7,29.42,North,0,0.0,-999.0,46,0.00,,,-99.99,,2013-04-08 22:25:00,
2013-04-08 14:30:00,30.7,12.3,29.42,North,0,0.0,-999.0,45,0.00,,,-99.99,,2013-04-08 22:30:00,
2013-04-08 14:35:00,30.4,11.7,29.42,North,0,0.0,-999.0,45,0.00,,,-99.99,,2013-04-08 22:35:00,
2013-04-08 14:40:00,30.9,11.5,29.42,North,0,0.0,-999.0,43,0.00,,,-99.99,,2013-04-08 22:40:00,
2013-04-08 14:45:00,30.5,10.6,29.42,North,0,0.0,-999.0,42,0.00,,,-99.99,,2013-04-08 22:45:00,
2013-04-08 14:50:00,30.5,10.2,29.42,North,0,0.0,-999.0,42,0.00,,,-99.99,,2013-04-08 22:50:00,
2013-04-08 14:56:00,30.3,10.4,29.42,North,0,0.0,-999.0,42,0.00,,,-99.99,,2013-04-08 22:56:00,
2013-04-08 15:02:00,29.9,8.3,29.40,North,0,0.0,-999.0,39,0.00,,,-99.99,,2013-04-08 23:02:00,
2013-04-08 15:07:00,29.8,11.6,29.40,North,0,0.0,-999.0,46,0.00,,,-99.99,,2013-04-08 23:07:00,
2013-04-08 15:14:00,30.5,9.5,29.40,North,0,0.0,-999.0,40,0.00,,,-99.99,,2013-04-08 23:14:00,
2013-04-08 15:19:00,30.6,9.3,29.40,North,0,0.0,-999.0,40,0.00,,,-99.99,,2013-04-08 23:19:00,
2013-04-08 15:24:00,30.2,6.4,29.40,North,0,0.0,-999.0,35,0.00,,,-99.99,,2013-04-08 23:24:00,
2013-04-08 15:29:00,29.8,8.3,29.40,North,0,0.0,-999.0,39,0.00,,,-99.99,,2013-04-08 23:29:00,
2013-04-08 15:36:00,30.8,7.1,29.40,North,0,0.0,-999.0,36,0.00,,,-99.99,,2013-04-08 23:36:00,
2013-04-08 15:41:00,29.8,8.6,29.40,North,0,0.0,-999.0,40,0.00,,,-99.99,,2013-04-08 23:41:00,
2013-04-08 15:46:00,29.8,7.7,29.40,North,0,0.0,-999.0,38,0.00,,,-99.99,,2013-04-08 23:46:00,
2013-04-08 15:52:00,29.6,10.1,29.40,North,0,0.0,-999.0,43,0.00,,,-99.99,,2013-04-08 23:52:00,
2013-04-08 15:57:00,29.7,9.2,29.40,North,0,0.0,-999.0,41,0.00,,,-99.99,,2013-04-08 23:57:00,
2013-04-08 16:02:00,29.8,8.5,29.38,North,0,0.0,-999.0,40,0.00,,,-99.99,,2013-04-09 00:02:00,
2013-04-08 16:07:00,29.7,8.9,29.38,North,0,0.0,-999.0,41,0.00,,,-99.99,,2013-04-09 00:07:00,
2013-04-08 16:13:00,29.6,7.4,29.38,North,0,0.0,-999.0,38,0.00,,,-99.99,,2013-04-09 00:13:00,
2013-04-08 16:19:00,29.9,10.3,29.38,North,0,0.0,-999.0,43,0.00,,,-99.99,,2013-04-09 00:19:00,
2013-04-08 16:24:00,30.3,8.1,29.38,North,0,0.0,-999.0,38,0.00,,,-99.99,,2013-04-09 00:24:00,
2013-04-08 16:29:00,30.1,7.7,29.38,North,0,0.0,-999.0,38,0.00,,,-99.99,,2013-04-09 00:29:00,
2013-04-08 16:34:00,30.0,8.4,29.38,North,0,0.0,-999.0,39,0.00,,,-99.99,,2013-04-09 00:34:00,
2013-04-08 16:39:00,29.7,8.2,29.38,North,0,0.0,-999.0,39,0.00,,,-99.99,,2013-04-09 00:39:00,
2013-04-08 16:44:00,28.7,7.6,29.38,North,0,0.0,-999.0,40,0.00,,,-99.99,,2013-04-09 00:44:00,
2013-04-08 16:49:00,29.4,5.6,29.38,North,0,0.0,-999.0,35,0.00,,,-99.99,,2013-04-09 00:49:00,
2013-04-08 16:54:00,29.5,7.4,29.38,North,0,0.0,-999.0,38,0.00,,,-99.99,,2013-04-09 00:54:00,
2013-04-08 16:59:00,29.8,6.3,29.35,North,0,0.0,-999.0,36,0.00,,,-99.99,,2013-04-09 00:59:00,
2013-04-08 17:04:00,28.7,7.1,29.35,North,0,0.0,-999.0,39,0.00,,,-99.99,,2013-04-09 01:04:00,
2013-04-08 17:09:00,28.3,7.2,29.35,North,0,0.0,-999.0,40,0.00,,,-99.99,,2013-04-09 01:09:00,
2013-04-08 17:14:00,29.1,5.7,29.35,North,0,0.0,-999.0,36,0.00,,,-99.99,,2013-04-09 01:14:00,
2013-04-08 17:19:00,29.3,6.3,29.35,North,0,0.0,-999.0,37,0.00,,,-99.99,,2013-04-09 01:19:00,
2013-04-08 17:24:00,28.2,7.1,29.35,North,0,0.0,-999.0,40,0.00,,,-99.99,,2013-04-09 01:24:00,
2013-04-08 17:29:00,27.6,7.5,29.35,North,0,0.0,-999.0,42,0.00,,,-99.99,,2013-04-09 01:29:00,
2013-04-08 17:34:00,28.2,7.8,29.35,North,0,0.0,-999.0,41,0.00,,,-99.99,,2013-04-09 01:34:00,
2013-04-08 17:41:00,27.7,7.9,29.35,North,0,0.0,-999.0,42,0.00,,,-99.99,,2013-04-09 01:41:00,
2013-04-08 17:46:00,27.9,7.8,29.35,North,0,0.0,-999.0,41,0.00,,,-99.99,,2013-04-09 01:46:00,
2013-04-08 17:51:00,27.5,8.5,29.35,North,0,0.0,-999.0,44,0.00,,,-99.99,,2013-04-09 01:51:00,
2013-04-08 17:56:00,27.6,8.8,29.35,North,0,0.0,-999.0,44,0.00,,,-99.99,,2013-04-09 01:56:00,
2013-04-08 18:02:00,26.8,7.7,29.33,North,0,0.0,-999.0,43,0.00,,,-99.99,,2013-04-09 02:02:00,
2013-04-08 18:07:00,26.8,6.5,29.33,North,0,0.0,-999.0,41,0.00,,,-99.99,,2013-04-09 02:07:00,
2013-04-08 18:12:00,27.3,5.7,29.33,North,0,0.0,-999.0,39,0.00,,,-99.99,,2013-04-09 02:12:00,
2013-04-08 18:17:00,27.0,6.3,29.33,North,0,0.0,-999.0,40,0.00,,,-99.99,,2013-04-09 02:17:00,
2013-04-08 18:24:00,26.6,6.3,29.33,North,0,0.0,-999.0,41,0.00,,,-99.99,,2013-04-09 02:24:00,
2013-04-08 18:29:00,26.0,4.7,29.33,North,0,0.0,-999.0,39,0.00,,,-99.99,,2013-04-09 02:29:00,
2013-04-08 18:34:00,25.5,4.3,29.33,North,0,0.0,-999.0,39,0.00,,,-99.99,,2013-04-09 02:34:00,
2013-04-08 18:39:00,25.5,5.2,29.33,North,0,0.0,-999.0,41,0.00,,,-99.99,,2013-04-09 02:39:00,
2013-04-08 18:44:00,25.4,4.1,29.33,North,0,0.0,-999.0,39,0.00,,,-99.99,,2013-04-09 02:44:00,
2013-04-08 18:50:00,25.0,4.9,29.33,North,0,0.0,-999.0,41,0.00,,,-99.99,,2013-04-09 02:50:00,
2013-04-08 18:55:00,24.9,6.8,29.33,North,0,0.0,-999.0,45,0.00,,,-99.99,,2013-04-09 02:55:00,
2013-04-08 19:00:00,24.7,7.1,29.32,North,0,0.0,-999.0,46,0.00,,,-99.99,,2013-04-09 03:00:00,
2013-04-08 19:05:00,24.6,7.1,29.32,North,0,0.0,-999.0,46,0.00,,,-99.99,,2013-04-09 03:05:00,
2013-04-08 19:10:00,24.4,6.6,29.32,North,0,0.0,-999.0,45,0.00,,,-99.99,,2013-04-09 03:10:00,
2013-04-08 19:15:00,24.2,5.4,29.32,North,0,0.0,-999.0,43,0.00,,,-99.99,,2013-04-09 03:15:00,
2013-04-08 19:20:00,24.2,5.0,29.32,North,0,0.0,-999.0,43,0.00,,,-99.99,,2013-04-09 03:20:00,
2013-04-08 19:25:00,24.0,5.1,29.32,North,0,0.0,-999.0,43,0.00,,,-99.99,,2013-04-09 03:25:00,
2013-04-08 19:31:00,24.0,6.5,29.32,North,0,0.0,-999.0,46,0.00,,,-99.99,,2013-04-09 03:31:00,
2013-04-08 19:37:00,23.9,5.3,29.32,North,0,0.0,-999.0,44,0.00,,,-99.99,,2013-04-09 03:37:00,
2013-04-08 19:42:00,23.8,6.3,29.32,North,0,0.0,-999.0,46,0.00,,,-99.99,,2013-04-09 03:42:00,
2013-04-08 19:47:00,23.5,5.6,29.32,North,0,0.0,-999.0,45,0.00,,,-99.99,,2013-04-09 03:47:00,
2013-04-08 19:52:00,24.0,5.6,29.32,North,0,0.0,-999.0,44,0.00,,,-99.99,,2013-04-09 03:52:00,
2013-04-08 19:57:00,23.5,6.1,29.32,North,0,0.0,-999.0,46,0.00,,,-99.99,,2013-04-09 03:57:00,
2013-04-08 20:00:00,23.6,4.7,29.30,North,0,0.0,-999.0,43,0.00,,,-99.99,,2013-04-09 04:00:00,
2013-04-08 20:02:00,23.4,5.6,29.30,North,0,0.0,-999.0,45,0.00,,,-99.99,,2013-04-09 04:02:00,
2013-04-08 20:04:00,23.3,5.7,29.30,North,0,0.0,-999.0,46,0.00,,,-99.99,,2013-04-09 04:04:00,
2013-04-08 20:09:00,23.3,4.8,29.30,North,0,0.0,-999.0,44,0.00,,,-99.99,,2013-04-09 04:09:00,
2013-04-08 20:14:00,23.5,5.6,29.30,North,0,0.0,-999.0,45,0.00,,,-99.99,,2013-04-09 04:14:00,
2013-04-08 20:19:00,23.3,6.1,29.30,North,0,0.0,-999.0,47,0.00,,,-99.99,,2013-04-09 04:19:00,
2013-04-08 20:24:00,23.3,6.2,29.30,North,0,0.0,-999.0,47,0.00,,,-99.99,,2013-04-09 04:24:00,
2013-04-08 20:27:00,23.3,6.1,29.30,North,0,0.0,-999.0,47,0.00,,,-99.99,,2013-04-09 04:27:00,
2013-04-08 20:32:00,23.1,5.9,29.30,North,0,0.0,-999.0,47,0.00,,,-99.99,,2013-04-09 04:32:00,
2013-04-08 20:37:00,22.9,6.9,29.30,North,0,0.0,-999.0,49,0.00,,,-99.99,,2013-04-09 04:37:00,
2013-04-08 20:42:00,22.4,6.2,29.30,North,0,0.0,-999.0,49,0.00,,,-99.99,,2013-04-09 04:42:00,
2013-04-08 20:47:00,22.2,6.6,29.30,North,0,0.0,-999.0,50,0.00,,,-99.99,,2013-04-09 04:47:00,
2013-04-08 20:54:00,22.5,6.6,29.30,North,0,0.0,-999.0,49,0.00,,,-99.99,,2013-04-09 04:54:00,
2013-04-08 20:59:00,22.2,6.4,29.30,North,0,0.0,-999.0,49,0.00,,,-99.99,,2013-04-09 04:59:00,
2013-04-08 21:04:00,21.9,7.0,29.30,North,0,0.0,-999.0,52,0.00,,,-99.99,,2013-04-09 05:04:00,
2013-04-08 21:10:00,21.8,4.5,29.30,North,0,0.0,-999.0,46,0.00,,,-99.99,,2013-04-09 05:10:00,
2013-04-08 21:15:00,21.8,4.2,29.30,North,0,0.0,-999.0,46,0.00,,,-99.99,,2013-04-09 05:15:00,
2013-04-08 21:20:00,21.7,5.5,29.30,North,0,0.0,-999.0,49,0.00,,,-99.99,,2013-04-09 05:20:00,
2013-04-08 21:25:00,21.8,6.1,29.30,North,0,0.0,-999.0,50,0.00,,,-99.99,,2013-04-09 05:25:00,
2013-04-08 21:30:00,21.7,6.4,29.30,North,0,0.0,-999.0,51,0.00,,,-99.99,,2013-04-09 05:30:00,
2013-04-08 21:35:00,21.5,6.8,29.30,North,0,0.0,-999.0,52,0.00,,,-99.99,,2013-04-09 05:35:00,
2013-04-08 21:40:00,21.3,7.2,29.30,North,0,0.0,-999.0,53,0.00,,,-99.99,,2013-04-09 05:40:00,
2013-04-08 21:45:00,21.5,6.6,29.30,North,0,0.0,-999.0,51,0.00,,,-99.99,,2013-04-09 05:45:00,
2013-04-08 21:50:00,21.4,6.9,29.30,North,0,0.0,-999.0,53,0.00,,,-99.99,,2013-04-09 05:50:00,
2013-04-08 21:55:00,21.6,6.7,29.30,North,0,0.0,-999.0,52,0.00,,,-99.99,,2013-04-09 05:55:00,
2013-04-08 22:00:00,21.3,6.2,29.29,North,0,0.0,-999.0,51,0.00,,,-99.99,,2013-04-09 06:00:00,
2013-04-08 22:05:00,21.3,7.2,29.29,North,0,0.0,-999.0,53,0.00,,,-99.99,,2013-04-09 06:05:00,
2013-04-08 22:10:00,21.0,6.0,29.29,North,0,0.0,-999.0,51,0.00,,,-99.99,,2013-04-09 06:10:00,
2013-04-08 22:15:00,21.3,6.8,29.29,North,0,0.0,-999.0,52,0.00,,,-99.99,,2013-04-09 06:15:00,
2013-04-08 22:20:00,21.0,5.8,29.29,North,0,0.0,-999.0,51,0.00,,,-99.99,,2013-04-09 06:20:00,
2013-04-08 22:26:00,20.6,5.7,29.29,North,0,0.0,-999.0,51,0.00,,,-99.99,,2013-04-09 06:26:00,
2013-04-08 22:31:00,20.5,5.6,29.29,North,0,0.0,-999.0,51,0.00,,,-99.99,,2013-04-09 06:31:00,
2013-04-08 22:36:00,20.6,5.4,29.29,North,0,0.0,-999.0,51,0.00,,,-99.99,,2013-04-09 06:36:00,
2013-04-08 22:41:00,20.6,6.5,29.29,North,0,0.0,-999.0,53,0.00,,,-99.99,,2013-04-09 06:41:00,
2013-04-08 22:46:00,20.6,6.0,29.29,North,0,0.0,-999.0,52,0.00,,,-99.99,,2013-04-09 06:46:00,
2013-04-08 22:51:00,20.6,6.5,29.29,North,0,0.0,-999.0,53,0.00,,,-99.99,,2013-04-09 06:51:00,
2013-04-08 22:56:00,20.5,4.8,29.29,North,0,0.0,-999.0,50,0.00,,,-99.99,,2013-04-09 06:56:00,
2013-04-08 23:01:00,20.4,5.8,29.28,North,0,0.0,-999.0,52,0.00,,,-99.99,,2013-04-09 07:01:00,
2013-04-08 23:07:00,20.3,5.1,29.28,North,0,0.0,-999.0,51,0.00,,,-99.99,,2013-04-09 07:07:00,
2013-04-08 23:12:00,20.3,5.1,29.28,North,0,0.0,-999.0,51,0.00,,,-99.99,,2013-04-09 07:12:00,
2013-04-08 23:17:00,20.1,4.9,29.28,North,0,0.0,-999.0,50,0.00,,,-99.99,,2013-04-09 07:17:00,
2013-04-08 23:22:00,20.2,5.1,29.28,North,0,0.0,-999.0,51,0.00,,,-99.99,,2013-04-09 07:22:00,
2013-04-08 23:27:00,20.5,5.8,29.28,North,0,0.0,-999.0,52,0.00,,,-99.99,,2013-04-09 07:27:00,
2013-04-08 23:32:00,20.4,5.7,29.28,North,0,0.0,-999.0,52,0.00,,,-99.99,,2013-04-09 07:32:00,
2013-04-08 23:37:00,20.4,5.1,29.28,North,0,0.0,-999.0,50,0.00,,,-99.99,,2013-04-09 07:37:00,
2013-04-08 23:42:00,20.6,4.9,29.28,North,0,0.0,-999.0,49,0.00,,,-99.99,,2013-04-09 07:42:00,
2013-04-08 23:47:00,20.4,5.0,29.28,North,0,0.0,-999.0,50,0.00,,,-99.99,,2013-04-09 07:47:00,
2013-04-08 23:52:00,20.3,5.1,29.28,North,0,0.0,-999.0,50,0.00,,,-99.99,,2013-04-09 07:52:00,
2013-04-08 23:57:00,20.6,5.8,29.28,North,0,0.0,-999.0,52,0.00,,,-99.99,,2013-04-09 07:57:00,